Eems Servant — PBTI — position and weather

sailwx.info

Track history (hours):
 
Tides and Currents Weather Stations Pressure Air Temp Water Temp Dewpoint Dewpoint Depression Visibility Wind Speed Wind Dir Waves Ship Positions

Eems Servant

Last reported at 2016-May-26 02:33 UTC. Time now 2016-May-26 10:47 UTC.
Position N 52°58' E 001°47'.

Length 87 m; draft 2.8 m.

Type: Cargo ship. MMSI: 246236000.

Date/timePositionNaut miles runAvg speedWind from/ knotsBaromVisibWave heightAir tempDewpointWater temp
2016-May-26 02:33N 52°58' E 001°47'9 9.4
2016-May-26 01:34N 53°02' E 001°34'1010.3
2016-May-26 00:34N 53°04' E 001°17'1111.3
2016-May-25 23:33N 53°07' E 000°59'14 7.1
2016-May-25 21:34N 53°09' E 000°35'1010.0
2016-May-25 20:33N 53°00' E 000°26'9 9.3
2016-May-25 19:33N 52°53' E 000°16'7 6.9
2016-May-25 18:33N 52°47' E 000°12'0 0.1
2016-May-25 17:30N 52°47' E 000°12'0 0.0
2016-May-25 16:30N 52°47' E 000°12'0 0.0
2016-May-25 15:30N 52°47' E 000°12'0 0.0
2016-May-25 14:33N 52°47' E 000°12'0 0.0
2016-May-25 13:33N 52°47' E 000°12'0 0.0
2016-May-25 12:33N 52°47' E 000°12'0 0.0
2016-May-25 11:27N 52°47' E 000°12'0 0.0
2016-May-25 10:33N 52°47' E 000°12'0 0.0
2016-May-25 09:33N 52°47' E 000°12'0 0.0
2016-May-25 08:33N 52°47' E 000°12'0 0.0
2016-May-25 07:33N 52°47' E 000°12'0 0.0
2016-May-25 06:30N 52°47' E 000°12'0 0.0
2016-May-25 05:33N 52°47' E 000°12'0 0.0
2016-May-25 04:33N 52°47' E 000°12'0 0.0
2016-May-25 03:27N 52°47' E 000°12'0 0.0
2016-May-25 02:33N 52°47' E 000°12'0 0.0
2016-May-25 01:30N 52°47' E 000°12'0 0.0
2016-May-25 00:33N 52°47' E 000°12'0 0.0
2016-May-24 23:33N 52°47' E 000°12'0 0.0
2016-May-24 22:33N 52°47' E 000°12'0 0.0
2016-May-24 21:33N 52°47' E 000°12'0 0.0
2016-May-24 20:30N 52°47' E 000°12'0 0.0
2016-May-24 19:33N 52°47' E 000°12'0 0.0
2016-May-24 18:33N 52°47' E 000°12'0 0.0
2016-May-24 17:27N 52°47' E 000°12'0 0.0
2016-May-24 16:30N 52°47' E 000°12'0 0.0
2016-May-24 15:15N 52°47' E 000°12'0 0.0
2016-May-24 14:30N 52°47' E 000°12'0 0.0
2016-May-24 13:32N 52°47' E 000°12'0 0.0
2016-May-24 12:33N 52°47' E 000°12'0 0.0
2016-May-24 11:30N 52°47' E 000°12'0 0.0
2016-May-24 10:33N 52°47' E 000°12'0 0.0
2016-May-24 09:24N 52°47' E 000°12'0 0.0
2016-May-24 08:21N 52°47' E 000°12'0 0.0
2016-May-24 07:33N 52°47' E 000°12'2 2.4
2016-May-24 06:33N 52°49' E 000°13'5 4.8
2016-May-24 05:33N 52°53' E 000°16'5 4.7
2016-May-24 04:33N 52°57' E 000°20'7 7.0
2016-May-24 03:33N 53°02' E 000°28'7 7.0
2016-May-24 02:33N 53°08' E 000°34'7 7.2
2016-May-24 01:32N 53°15' E 000°40'6 6.6
2016-May-24 00:33N 53°12' E 000°49'7 7.3
2016-May-23 23:33N 53°07' E 000°58'15 7.3
2016-May-23 21:29N 53°04' E 001°23'6 6.8
2016-May-23 20:34N 53°04' E 001°34'7 6.9
2016-May-23 19:31N 53°04' E 001°46'121 8.1
2016-May-23 04:30N 53°34' E 005°02'9 9.3
2016-May-23 03:33N 53°37' E 005°16'1010.0
2016-May-23 02:33N 53°41' E 005°32'1110.3
2016-May-23 01:32N 53°44' E 005°49'10 9.9
2016-May-23 00:33N 53°47' E 006°04'9 9.3
2016-May-22 23:33N 53°50' E 006°19'9 8.5
2016-May-22 22:33N 53°52' E 006°33'8 7.8
2016-May-22 21:33N 53°54' E 006°46'7 7.5
2016-May-22 20:33N 53°55' E 006°58'8 7.7
2016-May-22 19:34N 53°57' E 007°11'9 8.4
2016-May-22 18:32N 53°59' E 007°25'9 9.5
2016-May-22 17:33N 54°01' E 007°41'10 9.9
2016-May-22 16:33N 54°01' E 007°57'3010.0
2016-May-22 13:32N 53°51' E 008°46'7 7.2
2016-May-22 12:33N 53°51' E 008°58'7 6.5
2016-May-22 11:33N 53°53' E 009°08'1 0.9
2016-May-22 10:33N 53°54' E 009°09'8 8.1
2016-May-22 09:33N 54°00' E 009°18'27 6.7
2016-May-22 05:26N 54°22' E 009°47'7 7.9
2016-May-22 04:33N 54°21' E 009°59'6 4.5
2016-May-22 03:17N 54°22' E 010°09'3 4.6
2016-May-22 02:33N 54°24' E 010°12'9 8.5
2016-May-22 01:32N 54°31' E 010°22'9 9.1
2016-May-22 00:33N 54°34' E 010°36'8 8.5
2016-May-21 23:33N 54°35' E 010°51'9 8.9
2016-May-21 22:33N 54°36' E 011°06'10 9.5
2016-May-21 21:33N 54°32' E 011°21'10 9.7
2016-May-21 20:33N 54°23' E 011°23'19 9.7
2016-May-21 18:33N 54°03' E 011°25'6 6.3
2016-May-21 17:33N 53°57' E 011°24'4 3.9
2016-May-21 16:33N 53°54' E 011°28'0 0.0
2016-May-21 15:32N 53°54' E 011°28'0 0.0
2016-May-21 14:32N 53°54' E 011°28'0 0.0
2016-May-21 13:32N 53°54' E 011°28'0 0.0
2016-May-21 12:32N 53°54' E 011°28'0 0.0
2016-May-21 11:32N 53°54' E 011°28'0 0.0
2016-May-21 10:32N 53°54' E 011°28'0 0.0
2016-May-21 09:32N 53°54' E 011°28'0 0.1
2016-May-21 08:32N 53°54' E 011°28'0 0.0
2016-May-21 07:32N 53°54' E 011°28'0 0.0
2016-May-21 06:32N 53°54' E 011°28'0 0.0
2016-May-21 05:32N 53°54' E 011°28'0 0.0
2016-May-21 04:32N 53°54' E 011°28'0 0.0
2016-May-21 03:32N 53°54' E 011°28'0 0.0
2016-May-21 02:32N 53°54' E 011°28'0 0.0
2016-May-21 01:32N 53°54' E 011°28'0 0.0
2016-May-21 00:32N 53°54' E 011°28'0 0.0
2016-May-20 23:32N 53°54' E 011°28'0 0.0
2016-May-20 22:32N 53°54' E 011°28'0 0.0
2016-May-20 21:32N 53°54' E 011°28'0 0.0
2016-May-20 20:32N 53°54' E 011°28'0 0.0
2016-May-20 19:34N 53°54' E 011°28'0 0.0
2016-May-20 18:34N 53°54' E 011°28'0 0.0
2016-May-20 17:33N 53°54' E 011°28'6 6.1
2016-May-20 16:34N 53°59' E 011°21'19 9.4
2016-May-20 14:34N 54°18' E 011°20'1010.0
2016-May-20 13:34N 54°28' E 011°21'9 8.7
2016-May-20 12:33N 54°34' E 011°11'1010.3
2016-May-20 11:34N 54°35' E 010°54'2110.3
2016-May-20 09:34N 54°29' E 010°19'10 9.7
2016-May-20 08:33N 54°22' E 010°09'3 2.9
2016-May-20 07:34N 54°22' E 010°04'7 7.5
2016-May-20 06:34N 54°22' E 009°51'3 3.3
2016-May-20 05:34N 54°21' E 009°45'24 6.0
2016-May-20 01:33N 54°03' E 009°18'8 8.3
2016-May-20 00:33N 53°55' E 009°12'2 1.9
2016-May-19 23:33N 53°54' E 009°09'0 0.0
2016-May-19 22:33N 53°54' E 009°09'1 0.6
2016-May-19 21:33N 53°54' E 009°09'8 7.7
2016-May-19 20:33N 53°51' E 008°56'1110.7
2016-May-19 19:33N 53°55' E 008°40'1211.6
2016-May-19 18:32N 53°59' E 008°21'1211.9
2016-May-19 17:33N 53°58' E 008°01'1110.8
2016-May-19 16:33N 53°56' E 007°43'10 9.9
2016-May-19 15:34N 53°54' E 007°27'10 9.5
2016-May-19 14:33N 53°52' E 007°11'9 9.0
2016-May-19 13:34N 53°50' E 006°56'9 9.1
2016-May-19 12:33N 53°48' E 006°41'9 9.2
2016-May-19 11:34N 53°46' E 006°26'10 9.5
2016-May-19 10:33N 53°43' E 006°11'10 9.7
2016-May-19 09:34N 53°40' E 005°55'1010.2
2016-May-19 08:33N 53°37' E 005°39'1010.6
2016-May-19 07:33N 53°33' E 005°22'1211.2
2016-May-19 06:30N 53°29' E 005°03'129 9.9
2016-May-18 17:26N 51°35' E 003°23'9 9.8
2016-May-18 16:34N 51°28' E 003°31'10 9.7
2016-May-18 15:34N 51°24' E 003°45'9 9.0
2016-May-18 14:33N 51°27' E 003°59'10 9.8
2016-May-18 13:33N 51°22' E 004°13'8 7.9
2016-May-18 12:34N 51°15' E 004°19'4 3.7
2016-May-18 11:33N 51°12' E 004°20'2 1.6
2016-May-18 10:34N 51°10' E 004°20'0 0.0
2016-May-18 09:33N 51°10' E 004°20'0 0.0
2016-May-18 08:34N 51°10' E 004°20'0 0.0
2016-May-18 07:33N 51°10' E 004°20'0 0.0
2016-May-18 06:33N 51°10' E 004°20'0 0.0
2016-May-18 05:33N 51°10' E 004°20'0 0.0
2016-May-18 04:34N 51°10' E 004°20'0 0.0
2016-May-18 03:33N 51°10' E 004°20'0 0.0
2016-May-18 02:34N 51°10' E 004°20'0 0.0
2016-May-18 01:33N 51°10' E 004°20'0 0.0
2016-May-18 00:34N 51°10' E 004°20'0 0.0
2016-May-17 23:33N 51°10' E 004°20'0 0.0
2016-May-17 22:33N 51°10' E 004°20'0 0.0
2016-May-17 21:33N 51°10' E 004°20'0 0.0
2016-May-17 20:33N 51°10' E 004°20'0 0.0
2016-May-17 19:32N 51°10' E 004°20'0 0.0
2016-May-17 18:33N 51°10' E 004°20'0 0.0
2016-May-17 17:33N 51°10' E 004°20'0 0.0
2016-May-17 16:34N 51°10' E 004°20'0 0.0
2016-May-17 15:33N 51°10' E 004°20'0 0.0
2016-May-17 14:33N 51°10' E 004°20'0 0.0
2016-May-17 13:34N 51°10' E 004°20'0 0.0
2016-May-17 12:33N 51°10' E 004°20'0 0.0
2016-May-17 11:33N 51°10' E 004°20'0 0.0
2016-May-17 10:34N 51°10' E 004°20'0 0.0
2016-May-17 09:33N 51°10' E 004°20'4 3.8
2016-May-17 08:33N 51°13' E 004°23'7 7.5
2016-May-17 07:34N 51°19' E 004°16'7 7.0
2016-May-17 06:33N 51°22' E 004°06'6 5.7
2016-May-17 05:33N 51°24' E 003°58'7 7.2
2016-May-17 04:33N 51°21' E 003°47'8 7.5
2016-May-17 03:33N 51°25' E 003°37'7 7.2
2016-May-17 02:33N 51°24' E 003°25'25 8.4
2016-May-16 23:33N 51°22' E 002°45'7 6.8
2016-May-16 22:33N 51°21' E 002°34'1 0.3
2016-May-16 19:15N 51°20' E 002°33'0 0.0
2016-May-16 15:27N 51°20' E 002°33'0 0.0
2016-May-16 14:27N 51°20' E 002°33'0 0.0
2016-May-16 13:33N 51°20' E 002°33'0 0.0
2016-May-16 10:27N 51°20' E 002°34'0 0.0
2016-May-16 08:21N 51°20' E 002°33'0 0.1
2016-May-16 06:33N 51°20' E 002°33'  
Track history (hours):
 
Tides and Currents Weather Stations Pressure Air Temp Water Temp Dewpoint Dewpoint Depression Visibility Wind Speed Wind Dir Waves Ship Positions

Eems Servant

Last reported at 2016-May-26 02:33 UTC. Time now 2016-May-26 10:47 UTC.
Position N 52°58' E 001°47'.

Length 87 m; draft 2.8 m.

Type: Cargo ship. MMSI: 246236000.

Date/timePositionNaut miles runAvg speedWind from/ knotsBaromVisibWave heightAir tempDewpointWater temp
2016-May-26 02:33N 52°58' E 001°47'9 9.4
2016-May-26 01:34N 53°02' E 001°34'1010.3
2016-May-26 00:34N 53°04' E 001°17'1111.3
2016-May-25 23:33N 53°07' E 000°59'14 7.1
2016-May-25 21:34N 53°09' E 000°35'1010.0
2016-May-25 20:33N 53°00' E 000°26'9 9.3
2016-May-25 19:33N 52°53' E 000°16'7 6.9
2016-May-25 18:33N 52°47' E 000°12'0 0.1
2016-May-25 17:30N 52°47' E 000°12'0 0.0
2016-May-25 16:30N 52°47' E 000°12'0 0.0
2016-May-25 15:30N 52°47' E 000°12'0 0.0
2016-May-25 14:33N 52°47' E 000°12'0 0.0
2016-May-25 13:33N 52°47' E 000°12'0 0.0
2016-May-25 12:33N 52°47' E 000°12'0 0.0
2016-May-25 11:27N 52°47' E 000°12'0 0.0
2016-May-25 10:33N 52°47' E 000°12'0 0.0
2016-May-25 09:33N 52°47' E 000°12'0 0.0
2016-May-25 08:33N 52°47' E 000°12'0 0.0
2016-May-25 07:33N 52°47' E 000°12'0 0.0
2016-May-25 06:30N 52°47' E 000°12'0 0.0
2016-May-25 05:33N 52°47' E 000°12'0 0.0
2016-May-25 04:33N 52°47' E 000°12'0 0.0
2016-May-25 03:27N 52°47' E 000°12'0 0.0
2016-May-25 02:33N 52°47' E 000°12'0 0.0
2016-May-25 01:30N 52°47' E 000°12'0 0.0
2016-May-25 00:33N 52°47' E 000°12'0 0.0
2016-May-24 23:33N 52°47' E 000°12'0 0.0
2016-May-24 22:33N 52°47' E 000°12'0 0.0
2016-May-24 21:33N 52°47' E 000°12'0 0.0
2016-May-24 20:30N 52°47' E 000°12'0 0.0
2016-May-24 19:33N 52°47' E 000°12'0 0.0
2016-May-24 18:33N 52°47' E 000°12'0 0.0
2016-May-24 17:27N 52°47' E 000°12'0 0.0
2016-May-24 16:30N 52°47' E 000°12'0 0.0
2016-May-24 15:15N 52°47' E 000°12'0 0.0
2016-May-24 14:30N 52°47' E 000°12'0 0.0
2016-May-24 13:32N 52°47' E 000°12'0 0.0
2016-May-24 12:33N 52°47' E 000°12'0 0.0
2016-May-24 11:30N 52°47' E 000°12'0 0.0
2016-May-24 10:33N 52°47' E 000°12'0 0.0
2016-May-24 09:24N 52°47' E 000°12'0 0.0
2016-May-24 08:21N 52°47' E 000°12'0 0.0
2016-May-24 07:33N 52°47' E 000°12'2 2.4
2016-May-24 06:33N 52°49' E 000°13'5 4.8
2016-May-24 05:33N 52°53' E 000°16'5 4.7
2016-May-24 04:33N 52°57' E 000°20'7 7.0
2016-May-24 03:33N 53°02' E 000°28'7 7.0
2016-May-24 02:33N 53°08' E 000°34'7 7.2
2016-May-24 01:32N 53°15' E 000°40'6 6.6
2016-May-24 00:33N 53°12' E 000°49'7 7.3
2016-May-23 23:33N 53°07' E 000°58'15 7.3
2016-May-23 21:29N 53°04' E 001°23'6 6.8
2016-May-23 20:34N 53°04' E 001°34'7 6.9
2016-May-23 19:31N 53°04' E 001°46'121 8.1
2016-May-23 04:30N 53°34' E 005°02'9 9.3
2016-May-23 03:33N 53°37' E 005°16'1010.0
2016-May-23 02:33N 53°41' E 005°32'1110.3
2016-May-23 01:32N 53°44' E 005°49'10 9.9
2016-May-23 00:33N 53°47' E 006°04'9 9.3
2016-May-22 23:33N 53°50' E 006°19'9 8.5
2016-May-22 22:33N 53°52' E 006°33'8 7.8
2016-May-22 21:33N 53°54' E 006°46'7 7.5
2016-May-22 20:33N 53°55' E 006°58'8 7.7
2016-May-22 19:34N 53°57' E 007°11'9 8.4
2016-May-22 18:32N 53°59' E 007°25'9 9.5
2016-May-22 17:33N 54°01' E 007°41'10 9.9
2016-May-22 16:33N 54°01' E 007°57'3010.0
2016-May-22 13:32N 53°51' E 008°46'7 7.2
2016-May-22 12:33N 53°51' E 008°58'7 6.5
2016-May-22 11:33N 53°53' E 009°08'1 0.9
2016-May-22 10:33N 53°54' E 009°09'8 8.1
2016-May-22 09:33N 54°00' E 009°18'27 6.7
2016-May-22 05:26N 54°22' E 009°47'7 7.9
2016-May-22 04:33N 54°21' E 009°59'6 4.5
2016-May-22 03:17N 54°22' E 010°09'3 4.6
2016-May-22 02:33N 54°24' E 010°12'9 8.5
2016-May-22 01:32N 54°31' E 010°22'9 9.1
2016-May-22 00:33N 54°34' E 010°36'8 8.5
2016-May-21 23:33N 54°35' E 010°51'9 8.9
2016-May-21 22:33N 54°36' E 011°06'10 9.5
2016-May-21 21:33N 54°32' E 011°21'10 9.7
2016-May-21 20:33N 54°23' E 011°23'19 9.7
2016-May-21 18:33N 54°03' E 011°25'6 6.3
2016-May-21 17:33N 53°57' E 011°24'4 3.9
2016-May-21 16:33N 53°54' E 011°28'0 0.0
2016-May-21 15:32N 53°54' E 011°28'0 0.0
2016-May-21 14:32N 53°54' E 011°28'0 0.0
2016-May-21 13:32N 53°54' E 011°28'0 0.0
2016-May-21 12:32N 53°54' E 011°28'0 0.0
2016-May-21 11:32N 53°54' E 011°28'0 0.0
2016-May-21 10:32N 53°54' E 011°28'0 0.0
2016-May-21 09:32N 53°54' E 011°28'0 0.1
2016-May-21 08:32N 53°54' E 011°28'0 0.0
2016-May-21 07:32N 53°54' E 011°28'0 0.0
2016-May-21 06:32N 53°54' E 011°28'0 0.0
2016-May-21 05:32N 53°54' E 011°28'0 0.0
2016-May-21 04:32N 53°54' E 011°28'0 0.0
2016-May-21 03:32N 53°54' E 011°28'0 0.0
2016-May-21 02:32N 53°54' E 011°28'0 0.0
2016-May-21 01:32N 53°54' E 011°28'0 0.0
2016-May-21 00:32N 53°54' E 011°28'0 0.0
2016-May-20 23:32N 53°54' E 011°28'0 0.0
2016-May-20 22:32N 53°54' E 011°28'0 0.0
2016-May-20 21:32N 53°54' E 011°28'0 0.0
2016-May-20 20:32N 53°54' E 011°28'0 0.0
2016-May-20 19:34N 53°54' E 011°28'0 0.0
2016-May-20 18:34N 53°54' E 011°28'0 0.0
2016-May-20 17:33N 53°54' E 011°28'6 6.1
2016-May-20 16:34N 53°59' E 011°21'19 9.4
2016-May-20 14:34N 54°18' E 011°20'1010.0
2016-May-20 13:34N 54°28' E 011°21'9 8.7
2016-May-20 12:33N 54°34' E 011°11'1010.3
2016-May-20 11:34N 54°35' E 010°54'2110.3
2016-May-20 09:34N 54°29' E 010°19'10 9.7
2016-May-20 08:33N 54°22' E 010°09'3 2.9
2016-May-20 07:34N 54°22' E 010°04'7 7.5
2016-May-20 06:34N 54°22' E 009°51'3 3.3
2016-May-20 05:34N 54°21' E 009°45'24 6.0
2016-May-20 01:33N 54°03' E 009°18'8 8.3
2016-May-20 00:33N 53°55' E 009°12'2 1.9
2016-May-19 23:33N 53°54' E 009°09'0 0.0
2016-May-19 22:33N 53°54' E 009°09'1 0.6
2016-May-19 21:33N 53°54' E 009°09'8 7.7
2016-May-19 20:33N 53°51' E 008°56'1110.7
2016-May-19 19:33N 53°55' E 008°40'1211.6
2016-May-19 18:32N 53°59' E 008°21'1211.9
2016-May-19 17:33N 53°58' E 008°01'1110.8
2016-May-19 16:33N 53°56' E 007°43'10 9.9
2016-May-19 15:34N 53°54' E 007°27'10 9.5
2016-May-19 14:33N 53°52' E 007°11'9 9.0
2016-May-19 13:34N 53°50' E 006°56'9 9.1
2016-May-19 12:33N 53°48' E 006°41'9 9.2
2016-May-19 11:34N 53°46' E 006°26'10 9.5
2016-May-19 10:33N 53°43' E 006°11'10 9.7
2016-May-19 09:34N 53°40' E 005°55'1010.2
2016-May-19 08:33N 53°37' E 005°39'1010.6
2016-May-19 07:33N 53°33' E 005°22'1211.2
2016-May-19 06:30N 53°29' E 005°03'129 9.9
2016-May-18 17:26N 51°35' E 003°23'9 9.8
2016-May-18 16:34N 51°28' E 003°31'10 9.7
2016-May-18 15:34N 51°24' E 003°45'9 9.0
2016-May-18 14:33N 51°27' E 003°59'10 9.8
2016-May-18 13:33N 51°22' E 004°13'8 7.9
2016-May-18 12:34N 51°15' E 004°19'4 3.7
2016-May-18 11:33N 51°12' E 004°20'2 1.6
2016-May-18 10:34N 51°10' E 004°20'0 0.0
2016-May-18 09:33N 51°10' E 004°20'0 0.0
2016-May-18 08:34N 51°10' E 004°20'0 0.0
2016-May-18 07:33N 51°10' E 004°20'0 0.0
2016-May-18 06:33N 51°10' E 004°20'0 0.0
2016-May-18 05:33N 51°10' E 004°20'0 0.0
2016-May-18 04:34N 51°10' E 004°20'0 0.0
2016-May-18 03:33N 51°10' E 004°20'0 0.0
2016-May-18 02:34N 51°10' E 004°20'0 0.0
2016-May-18 01:33N 51°10' E 004°20'0 0.0
2016-May-18 00:34N 51°10' E 004°20'0 0.0
2016-May-17 23:33N 51°10' E 004°20'0 0.0
2016-May-17 22:33N 51°10' E 004°20'0 0.0
2016-May-17 21:33N 51°10' E 004°20'0 0.0
2016-May-17 20:33N 51°10' E 004°20'0 0.0
2016-May-17 19:32N 51°10' E 004°20'0 0.0
2016-May-17 18:33N 51°10' E 004°20'0 0.0
2016-May-17 17:33N 51°10' E 004°20'0 0.0
2016-May-17 16:34N 51°10' E 004°20'0 0.0
2016-May-17 15:33N 51°10' E 004°20'0 0.0
2016-May-17 14:33N 51°10' E 004°20'0 0.0
2016-May-17 13:34N 51°10' E 004°20'0 0.0
2016-May-17 12:33N 51°10' E 004°20'0 0.0
2016-May-17 11:33N 51°10' E 004°20'0 0.0
2016-May-17 10:34N 51°10' E 004°20'0 0.0
2016-May-17 09:33N 51°10' E 004°20'4 3.8
2016-May-17 08:33N 51°13' E 004°23'7 7.5
2016-May-17 07:34N 51°19' E 004°16'7 7.0
2016-May-17 06:33N 51°22' E 004°06'6 5.7
2016-May-17 05:33N 51°24' E 003°58'7 7.2
2016-May-17 04:33N 51°21' E 003°47'8 7.5
2016-May-17 03:33N 51°25' E 003°37'7 7.2
2016-May-17 02:33N 51°24' E 003°25'25 8.4
2016-May-16 23:33N 51°22' E 002°45'7 6.8
2016-May-16 22:33N 51°21' E 002°34'1 0.3
2016-May-16 19:15N 51°20' E 002°33'0 0.0
2016-May-16 15:27N 51°20' E 002°33'0 0.0
2016-May-16 14:27N 51°20' E 002°33'0 0.0
2016-May-16 13:33N 51°20' E 002°33'0 0.0
2016-May-16 10:27N 51°20' E 002°34'0 0.0
2016-May-16 08:21N 51°20' E 002°33'0 0.1
2016-May-16 06:33N 51°20' E 002°33'  

Dump ship's entire track history